createdAt,value
2023-04-28T00:00:56.993Z,94774.00
2023-04-28T00:01:57.015Z,94772.00
2023-04-28T00:02:57.069Z,94772.00
2023-04-28T00:03:57.100Z,94774.00
2023-04-28T00:04:57.012Z,94772.00
2023-04-28T00:05:57.009Z,94772.00
2023-04-28T00:06:56.963Z,94770.00
2023-04-28T00:07:56.945Z,94772.00
2023-04-28T00:08:56.959Z,94774.00
2023-04-28T00:09:57.083Z,94778.00
2023-04-28T00:10:56.955Z,94776.00
2023-04-28T00:11:56.939Z,94780.00
2023-04-28T00:12:56.910Z,94780.00
2023-04-28T00:13:56.942Z,94776.00
2023-04-28T00:14:56.896Z,94776.00
2023-04-28T00:15:57.740Z,94770.00
2023-04-28T00:16:56.997Z,94768.00
2023-04-28T00:17:56.976Z,94774.00
2023-04-28T00:18:56.882Z,94774.00
2023-04-28T00:19:56.845Z,94770.00
2023-04-28T00:20:56.882Z,94772.00
2023-04-28T00:21:56.857Z,94772.00
2023-04-28T00:22:56.828Z,94772.00
2023-04-28T00:23:56.885Z,94772.00
2023-04-28T00:24:56.867Z,94772.00
2023-04-28T00:25:56.836Z,94776.00
2023-04-28T00:26:56.875Z,94780.00
2023-04-28T00:27:56.811Z,94780.00
2023-04-28T00:28:56.797Z,94780.00
2023-04-28T00:29:56.793Z,94780.00
2023-04-28T00:30:56.794Z,94776.00
2023-04-28T00:31:56.958Z,94774.00
2023-04-28T00:32:56.813Z,94772.00
2023-04-28T00:33:56.776Z,94774.00
2023-04-28T00:34:56.787Z,94774.00
2023-04-28T00:35:56.768Z,94776.00
2023-04-28T00:36:56.774Z,94776.00
2023-04-28T00:37:56.736Z,94780.00
2023-04-28T00:38:56.760Z,94780.00
2023-04-28T00:39:56.706Z,94780.00
2023-04-28T00:40:56.712Z,94778.00
2023-04-28T00:41:56.717Z,94778.00
2023-04-28T00:42:56.739Z,94778.00
2023-04-28T00:43:56.691Z,94774.00
2023-04-28T00:44:56.710Z,94776.00
2023-04-28T00:45:56.743Z,94770.00
2023-04-28T00:46:56.683Z,94772.00
2023-04-28T00:47:56.699Z,94770.00
2023-04-28T00:48:56.691Z,94774.00
2023-04-28T00:49:56.673Z,94770.00
2023-04-28T00:50:56.670Z,94770.00
2023-04-28T00:51:56.665Z,94770.00
2023-04-28T00:52:56.674Z,94770.00
2023-04-28T00:53:56.638Z,94770.00
2023-04-28T00:54:56.599Z,94770.00
2023-04-28T00:55:56.630Z,94772.00
2023-04-28T00:56:56.706Z,94772.00
2023-04-28T00:57:56.626Z,94772.00
2023-04-28T00:58:56.576Z,94770.00
2023-04-28T00:59:56.591Z,94768.00
2023-04-28T01:00:56.663Z,94766.00
2023-04-28T01:01:56.538Z,94764.00
2023-04-28T01:02:56.627Z,94762.00
2023-04-28T01:03:56.821Z,94764.00
2023-04-28T01:04:56.536Z,94764.00
2023-04-28T01:05:56.551Z,94764.00
2023-04-28T01:06:56.528Z,94764.00
2023-04-28T01:07:56.523Z,94762.00
2023-04-28T01:08:56.527Z,94760.00
2023-04-28T01:09:56.543Z,94758.00
2023-04-28T01:10:56.504Z,94756.00
2023-04-28T01:11:56.498Z,94758.00
2023-04-28T01:12:56.493Z,94760.00
2023-04-28T01:13:56.496Z,94756.00
2023-04-28T01:14:56.476Z,94758.00
2023-04-28T01:15:56.476Z,94756.00
2023-04-28T01:16:56.506Z,94753.00
2023-04-28T01:17:56.474Z,94747.00
2023-04-28T01:18:56.450Z,94747.00
2023-04-28T01:19:56.460Z,94745.00
2023-04-28T01:20:56.459Z,94745.00
2023-04-28T01:21:56.419Z,94747.00
2023-04-28T01:22:56.401Z,94745.00
2023-04-28T01:23:56.449Z,94745.00
2023-04-28T01:24:56.437Z,94745.00
2023-04-28T01:25:56.390Z,94749.00
2023-04-28T01:26:56.448Z,94745.00
2023-04-28T01:27:56.421Z,94745.00
2023-04-28T01:28:56.492Z,94741.00
2023-04-28T01:29:56.474Z,94741.00
2023-04-28T01:30:56.470Z,94737.00
2023-04-28T01:31:56.579Z,94737.00
2023-04-28T01:32:56.575Z,94737.00
2023-04-28T01:33:56.540Z,94737.00
2023-04-28T01:34:56.631Z,94737.00
2023-04-28T01:35:56.670Z,94735.00
2023-04-28T01:36:56.664Z,94733.00
2023-04-28T01:37:56.675Z,94731.00
2023-04-28T01:38:56.696Z,94731.00
2023-04-28T01:39:56.752Z,94735.00
2023-04-28T01:40:56.744Z,94739.00
2023-04-28T01:41:56.822Z,94739.00
2023-04-28T01:42:56.880Z,94741.00
2023-04-28T01:43:56.849Z,94743.00
2023-04-28T01:44:56.855Z,94747.00
2023-04-28T01:45:56.977Z,94745.00
2023-04-28T01:46:56.893Z,94745.00
2023-04-28T01:47:57.046Z,94741.00
2023-04-28T01:48:56.990Z,94745.00
2023-04-28T01:49:57.005Z,94741.00
2023-04-28T01:50:57.020Z,94743.00
2023-04-28T01:51:57.038Z,94741.00
2023-04-28T01:52:57.040Z,94739.00
2023-04-28T01:53:57.134Z,94743.00
2023-04-28T01:54:57.192Z,94741.00
2023-04-28T01:55:57.254Z,94743.00
2023-04-28T01:56:57.220Z,94745.00
2023-04-28T01:57:57.208Z,94745.00
2023-04-28T01:58:57.246Z,94745.00
2023-04-28T01:59:57.262Z,94745.00
2023-04-28T02:00:57.257Z,94745.00
2023-04-28T02:01:57.320Z,94747.00
2023-04-28T02:02:57.338Z,94747.00
2023-04-28T02:03:57.571Z,94749.00
2023-04-28T02:04:57.406Z,94749.00
2023-04-28T02:05:57.358Z,94747.00
2023-04-28T02:06:57.381Z,94745.00
2023-04-28T02:07:57.369Z,94743.00
2023-04-28T02:08:57.428Z,94741.00
2023-04-28T02:09:57.435Z,94737.00
2023-04-28T02:10:57.455Z,94737.00
2023-04-28T02:11:57.443Z,94735.00
2023-04-28T02:12:57.463Z,94735.00
2023-04-28T02:13:57.468Z,94733.00
2023-04-28T02:14:57.478Z,94731.00
2023-04-28T02:15:57.530Z,94729.00
2023-04-28T02:16:57.558Z,94727.00
2023-04-28T02:17:57.696Z,94727.00
2023-04-28T02:18:57.582Z,94723.00
2023-04-28T02:19:57.667Z,94723.00
2023-04-28T02:20:57.648Z,94721.00
2023-04-28T02:21:57.653Z,94715.00
2023-04-28T02:22:57.656Z,94711.00
2023-04-28T02:23:57.678Z,94711.00
2023-04-28T02:24:57.700Z,94711.00
2023-04-28T02:25:57.704Z,94715.00
2023-04-28T02:26:57.709Z,94715.00
2023-04-28T02:27:57.740Z,94717.00
2023-04-28T02:28:57.769Z,94717.00
2023-04-28T02:29:57.769Z,94713.00
2023-04-28T02:30:57.790Z,94707.00
2023-04-28T02:31:57.802Z,94705.00
2023-04-28T02:32:57.933Z,94709.00
2023-04-28T02:33:57.840Z,94711.00
2023-04-28T02:34:57.843Z,94717.00
2023-04-28T02:35:57.846Z,94719.00
2023-04-28T02:36:57.855Z,94721.00
2023-04-28T02:37:57.896Z,94719.00
2023-04-28T02:38:57.886Z,94719.00
2023-04-28T02:39:57.929Z,94717.00
2023-04-28T02:40:57.946Z,94713.00
2023-04-28T02:41:57.935Z,94715.00
2023-04-28T02:42:57.951Z,94709.00
2023-04-28T02:43:57.998Z,94709.00
2023-04-28T02:44:58.037Z,94711.00
2023-04-28T02:45:58.045Z,94711.00
2023-04-28T02:46:58.079Z,94707.00
2023-04-28T02:47:58.108Z,94703.00
2023-04-28T02:48:58.086Z,94702.00
2023-04-28T02:49:58.063Z,94698.00
2023-04-28T02:50:58.192Z,94696.00
2023-04-28T02:51:58.131Z,94700.00
2023-04-28T02:52:58.142Z,94702.00
2023-04-28T02:53:58.169Z,94700.00
2023-04-28T02:54:58.183Z,94698.00
2023-04-28T02:55:58.230Z,94696.00
2023-04-28T02:56:58.224Z,94692.00
2023-04-28T02:57:58.264Z,94688.00
2023-04-28T02:58:58.258Z,94692.00
2023-04-28T02:59:58.278Z,94690.00
2023-04-28T03:00:58.367Z,94690.00
2023-04-28T03:01:58.324Z,94688.00
2023-04-28T03:02:58.486Z,94690.00
2023-04-28T03:03:58.543Z,94684.00
2023-04-28T03:04:58.527Z,94682.00
2023-04-28T03:05:58.429Z,94680.00
2023-04-28T03:06:58.437Z,94682.00
2023-04-28T03:07:58.468Z,94680.00
2023-04-28T03:08:58.511Z,94680.00
2023-04-28T03:09:58.476Z,94682.00
2023-04-28T03:10:58.532Z,94682.00
2023-04-28T03:11:58.572Z,94682.00
2023-04-28T03:12:58.561Z,94682.00
2023-04-28T03:13:58.621Z,94680.00
2023-04-28T03:14:58.613Z,94678.00
2023-04-28T03:15:58.672Z,94672.00
2023-04-28T03:16:58.648Z,94670.00
2023-04-28T03:17:58.710Z,94670.00
2023-04-28T03:18:58.679Z,94670.00
2023-04-28T03:19:58.755Z,94670.00
2023-04-28T03:20:58.719Z,94666.00
2023-04-28T03:21:58.748Z,94660.00
2023-04-28T03:22:58.808Z,94658.00
2023-04-28T03:23:58.803Z,94658.00
2023-04-28T03:24:58.872Z,94662.00
2023-04-28T03:25:58.842Z,94664.00
2023-04-28T03:26:58.870Z,94668.00
2023-04-28T03:27:58.866Z,94672.00
2023-04-28T03:28:58.958Z,94670.00
2023-04-28T03:29:58.919Z,94672.00
2023-04-28T03:30:58.961Z,94672.00
2023-04-28T03:31:59.033Z,94672.00
2023-04-28T03:32:59.000Z,94668.00
2023-04-28T03:33:59.014Z,94668.00
2023-04-28T03:34:58.998Z,94668.00
2023-04-28T03:35:59.108Z,94668.00
2023-04-28T03:36:59.068Z,94670.00
2023-04-28T03:37:59.082Z,94670.00
2023-04-28T03:38:59.102Z,94670.00
2023-04-28T03:39:59.133Z,94670.00
2023-04-28T03:40:59.141Z,94672.00
2023-04-28T03:41:59.181Z,94676.00
2023-04-28T03:42:59.171Z,94674.00
2023-04-28T03:43:59.214Z,94676.00
2023-04-28T03:44:59.224Z,94672.00
2023-04-28T03:45:59.268Z,94670.00
2023-04-28T03:46:59.251Z,94668.00
2023-04-28T03:47:59.402Z,94664.00
2023-04-28T03:48:59.320Z,94668.00
2023-04-28T03:49:59.369Z,94668.00
2023-04-28T03:50:59.334Z,94670.00
2023-04-28T03:51:59.782Z,94672.00
2023-04-28T03:52:59.416Z,94668.00
2023-04-28T03:53:59.446Z,94666.00
2023-04-28T03:54:59.453Z,94664.00
2023-04-28T03:55:59.477Z,94666.00
2023-04-28T03:56:59.494Z,94666.00
2023-04-28T03:57:59.573Z,94668.00
2023-04-28T03:58:59.572Z,94666.00
2023-04-28T03:59:59.604Z,94666.00
2023-04-28T04:00:59.630Z,94666.00
2023-04-28T04:01:59.633Z,94664.00
2023-04-28T04:02:59.789Z,94662.00
2023-04-28T04:03:59.902Z,94668.00
2023-04-28T04:04:59.937Z,94668.00
2023-04-28T04:05:59.766Z,94674.00
2023-04-28T04:06:59.781Z,94672.00
2023-04-28T04:07:59.811Z,94670.00
2023-04-28T04:08:59.802Z,94668.00
2023-04-28T04:10:00.890Z,94666.00
2023-04-28T04:10:59.913Z,94664.00
2023-04-28T04:11:59.925Z,94664.00
2023-04-28T04:12:59.941Z,94666.00
2023-04-28T04:13:59.970Z,94666.00
2023-04-28T04:14:59.990Z,94668.00
2023-04-28T04:16:00.074Z,94668.00
2023-04-28T04:17:00.085Z,94670.00
2023-04-28T04:18:00.156Z,94672.00
2023-04-28T04:19:00.108Z,94672.00
2023-04-28T04:20:00.185Z,94674.00
2023-04-28T04:21:00.146Z,94676.00
2023-04-28T04:22:00.173Z,94676.00
2023-04-28T04:23:00.230Z,94678.00
2023-04-28T04:24:00.254Z,94680.00
2023-04-28T04:25:00.278Z,94680.00
2023-04-28T04:26:00.289Z,94682.00
2023-04-28T04:27:00.401Z,94682.00
2023-04-28T04:28:00.334Z,94682.00
2023-04-28T04:29:00.366Z,94672.00
2023-04-28T04:30:00.417Z,94676.00
2023-04-28T04:31:00.481Z,94676.00
2023-04-28T04:32:00.456Z,94676.00
2023-04-28T04:33:00.485Z,94670.00
2023-04-28T04:34:00.549Z,94676.00
2023-04-28T04:35:00.557Z,94678.00
2023-04-28T04:36:00.573Z,94678.00
2023-04-28T04:37:00.604Z,94674.00
2023-04-28T04:38:01.282Z,94668.00
2023-04-28T04:39:00.691Z,94674.00
2023-04-28T04:40:00.719Z,94668.00
2023-04-28T04:41:00.715Z,94672.00
2023-04-28T04:42:07.274Z,94670.00
2023-04-28T04:43:01.722Z,94672.00
2023-04-28T04:44:00.721Z,94672.00
2023-04-28T04:45:00.734Z,94670.00
2023-04-28T04:46:00.716Z,94670.00
2023-04-28T04:47:00.897Z,94676.00
2023-04-28T04:48:00.775Z,94676.00
2023-04-28T04:49:00.706Z,94670.00
2023-04-28T04:50:00.680Z,94668.00
2023-04-28T04:51:00.712Z,94670.00
2023-04-28T04:52:00.672Z,94672.00
2023-04-28T04:53:00.653Z,94674.00
2023-04-28T04:54:00.702Z,94680.00
2023-04-28T04:55:00.668Z,94682.00
2023-04-28T04:56:00.640Z,94680.00
2023-04-28T04:57:00.659Z,94680.00
2023-04-28T04:58:00.619Z,94680.00
2023-04-28T04:59:00.636Z,94690.00
2023-04-28T05:00:00.655Z,94694.00
2023-04-28T05:01:00.690Z,94696.00
2023-04-28T05:02:00.734Z,94698.00
2023-04-28T05:03:00.866Z,94694.00
2023-04-28T05:04:00.951Z,94696.00
2023-04-28T05:05:12.205Z,94696.00
2023-04-28T05:06:01.748Z,94698.00
2023-04-28T05:07:00.838Z,94698.00
2023-04-28T05:08:00.762Z,94700.00
2023-04-28T05:09:00.733Z,94702.00
2023-04-28T05:10:00.747Z,94705.00
2023-04-28T05:11:00.714Z,94707.00
2023-04-28T05:12:00.737Z,94709.00
2023-04-28T05:13:00.774Z,94711.00
2023-04-28T05:14:00.722Z,94713.00
2023-04-28T05:15:00.715Z,94715.00
2023-04-28T05:16:00.756Z,94719.00
2023-04-28T05:17:00.890Z,94721.00
2023-04-28T05:18:00.710Z,94725.00
2023-04-28T05:19:00.712Z,94725.00
2023-04-28T05:20:00.681Z,94725.00
2023-04-28T05:21:00.644Z,94729.00
2023-04-28T05:22:00.667Z,94725.00
2023-04-28T05:23:00.632Z,94729.00
2023-04-28T05:24:00.648Z,94731.00
2023-04-28T05:25:00.662Z,94727.00
2023-04-28T05:26:00.696Z,94723.00
2023-04-28T05:27:01.316Z,94733.00
2023-04-28T05:28:00.763Z,94735.00
2023-04-28T05:29:00.918Z,94737.00
2023-04-28T05:30:00.910Z,94733.00
2023-04-28T05:31:01.865Z,94733.00
2023-04-28T05:32:00.941Z,94735.00
2023-04-28T05:33:00.993Z,94737.00
2023-04-28T05:34:00.991Z,94741.00
2023-04-28T05:35:00.966Z,94737.00
2023-04-28T05:36:00.989Z,94737.00
2023-04-28T05:37:01.056Z,94737.00
2023-04-28T05:38:01.019Z,94741.00
2023-04-28T05:39:01.021Z,94743.00
2023-04-28T05:40:01.092Z,94745.00
2023-04-28T05:41:01.118Z,94749.00
2023-04-28T05:42:01.448Z,94745.00
2023-04-28T05:43:01.252Z,94749.00
2023-04-28T05:44:01.238Z,94751.00
2023-04-28T05:45:01.474Z,94753.00
2023-04-28T05:46:01.391Z,94758.00
2023-04-28T05:47:01.613Z,94760.00
2023-04-28T05:48:01.467Z,94760.00
2023-04-28T05:49:01.517Z,94758.00
2023-04-28T05:50:01.554Z,94760.00
2023-04-28T05:51:01.612Z,94756.00
2023-04-28T05:52:01.685Z,94754.00
2023-04-28T05:53:01.690Z,94754.00
2023-04-28T05:54:01.748Z,94760.00
2023-04-28T05:55:01.812Z,94764.00
2023-04-28T05:56:01.866Z,94764.00
2023-04-28T05:57:01.940Z,94770.00
2023-04-28T05:58:01.971Z,94772.00
2023-04-28T05:59:02.002Z,94772.00
2023-04-28T06:00:02.066Z,94768.00
2023-04-28T06:01:02.101Z,94768.00
2023-04-28T06:02:02.207Z,94770.00
2023-04-28T06:03:02.486Z,94770.00
2023-04-28T06:04:02.460Z,94774.00
2023-04-28T06:05:02.730Z,94778.00
2023-04-28T06:06:02.486Z,94780.00
2023-04-28T06:07:02.430Z,94782.00
2023-04-28T06:08:02.534Z,94782.00
2023-04-28T06:09:03.361Z,94788.00
2023-04-28T06:10:02.561Z,94786.00
2023-04-28T06:11:02.591Z,94788.00
2023-04-28T06:12:02.615Z,94784.00
2023-04-28T06:13:02.700Z,94790.00
2023-04-28T06:14:02.712Z,94790.00
2023-04-28T06:15:02.827Z,94792.00
2023-04-28T06:16:02.878Z,94794.00
2023-04-28T06:17:02.856Z,94799.00
2023-04-28T06:18:02.917Z,94796.00
2023-04-28T06:19:02.953Z,94796.00
2023-04-28T06:20:03.028Z,94801.00
2023-04-28T06:21:03.035Z,94797.00
2023-04-28T06:22:03.084Z,94797.00
2023-04-28T06:23:03.147Z,94797.00
2023-04-28T06:24:03.167Z,94796.00
2023-04-28T06:25:03.217Z,94797.00
2023-04-28T06:26:03.848Z,94796.00
2023-04-28T06:27:03.354Z,94796.00
2023-04-28T06:28:03.345Z,94796.00
2023-04-28T06:29:03.386Z,94794.00
2023-04-28T06:30:03.430Z,94794.00
2023-04-28T06:31:03.532Z,94794.00
2023-04-28T06:32:03.589Z,94790.00
2023-04-28T06:33:03.598Z,94796.00
2023-04-28T06:34:03.595Z,94796.00
2023-04-28T06:35:03.665Z,94797.00
2023-04-28T06:36:03.667Z,94797.00
2023-04-28T06:37:03.712Z,94794.00
2023-04-28T06:38:03.775Z,94796.00
2023-04-28T06:39:03.872Z,94797.00
2023-04-28T06:40:03.856Z,94797.00
2023-04-28T06:41:03.909Z,94797.00
2023-04-28T06:42:03.953Z,94799.00
2023-04-28T06:43:04.083Z,94799.00
2023-04-28T06:44:04.045Z,94799.00
2023-04-28T06:45:04.116Z,94799.00
2023-04-28T06:46:04.184Z,94799.00
2023-04-28T06:47:04.505Z,94797.00
2023-04-28T06:48:04.313Z,94799.00
2023-04-28T06:49:04.341Z,94801.00
2023-04-28T06:50:04.364Z,94801.00
2023-04-28T06:51:04.445Z,94803.00
2023-04-28T06:52:04.477Z,94801.00
2023-04-28T06:53:04.550Z,94799.00
2023-04-28T06:54:04.602Z,94801.00
2023-04-28T06:55:04.626Z,94799.00
2023-04-28T06:56:04.687Z,94797.00
2023-04-28T06:57:04.725Z,94799.00
2023-04-28T06:58:04.810Z,94796.00
2023-04-28T06:59:04.820Z,94797.00
2023-04-28T07:00:04.898Z,94796.00
2023-04-28T07:01:04.989Z,94797.00
2023-04-28T07:02:05.051Z,94796.00
2023-04-28T07:03:05.251Z,94794.00
2023-04-28T07:04:05.283Z,94794.00
2023-04-28T07:05:05.106Z,94796.00
2023-04-28T07:06:05.172Z,94796.00
2023-04-28T07:07:05.248Z,94796.00
2023-04-28T07:08:05.408Z,94796.00
2023-04-28T07:09:05.286Z,94794.00
2023-04-28T07:10:05.397Z,94797.00
2023-04-28T07:11:05.405Z,94796.00
2023-04-28T07:12:05.429Z,94797.00
2023-04-28T07:13:05.499Z,94796.00
2023-04-28T07:14:05.508Z,94796.00
2023-04-28T07:15:05.607Z,94797.00
2023-04-28T07:16:05.655Z,94799.00
2023-04-28T07:17:05.662Z,94796.00
2023-04-28T07:18:05.804Z,94794.00
2023-04-28T07:19:05.750Z,94794.00
2023-04-28T07:20:05.821Z,94790.00
2023-04-28T07:21:05.876Z,94792.00
2023-04-28T07:22:05.919Z,94794.00
2023-04-28T07:23:05.944Z,94799.00
2023-04-28T07:24:06.010Z,94799.00
2023-04-28T07:25:06.038Z,94799.00
2023-04-28T07:26:06.047Z,94799.00
2023-04-28T07:27:06.211Z,94797.00
2023-04-28T07:28:06.141Z,94801.00
2023-04-28T07:29:06.192Z,94801.00
2023-04-28T07:30:15.204Z,94799.00
2023-04-28T07:31:07.251Z,94801.00
2023-04-28T07:32:07.714Z,94799.00
2023-04-28T07:33:06.452Z,94799.00
2023-04-28T07:34:06.244Z,94797.00
2023-04-28T07:35:06.224Z,94799.00
2023-04-28T07:36:06.181Z,94797.00
2023-04-28T07:37:06.192Z,94797.00
2023-04-28T07:38:06.474Z,94805.00
2023-04-28T07:39:06.230Z,94805.00
2023-04-28T07:40:06.251Z,94807.00
2023-04-28T07:41:07.697Z,94811.00
2023-04-28T07:42:06.237Z,94811.00
2023-04-28T07:43:06.281Z,94819.00
2023-04-28T07:44:06.260Z,94819.00
2023-04-28T07:45:06.236Z,94819.00
2023-04-28T07:46:06.292Z,94819.00
2023-04-28T07:47:06.218Z,94817.00
2023-04-28T07:48:06.295Z,94821.00
2023-04-28T07:49:06.213Z,94819.00
2023-04-28T07:50:06.213Z,94821.00
2023-04-28T07:51:06.303Z,94817.00
2023-04-28T07:52:06.214Z,94817.00
2023-04-28T07:53:06.529Z,94815.00
2023-04-28T07:54:06.174Z,94817.00
2023-04-28T07:55:06.180Z,94817.00
2023-04-28T07:56:06.376Z,94817.00
2023-04-28T07:57:06.203Z,94819.00
2023-04-28T07:58:06.190Z,94817.00
2023-04-28T07:59:06.145Z,94815.00
2023-04-28T08:00:06.104Z,94819.00
2023-04-28T08:01:06.171Z,94819.00
2023-04-28T08:02:06.184Z,94819.00
2023-04-28T08:03:06.286Z,94821.00
2023-04-28T08:04:07.076Z,94819.00
2023-04-28T08:05:06.217Z,94821.00
2023-04-28T08:06:06.098Z,94825.00
2023-04-28T08:07:06.073Z,94827.00
2023-04-28T08:08:06.065Z,94823.00
2023-04-28T08:09:06.121Z,94825.00
2023-04-28T08:10:06.038Z,94825.00
2023-04-28T08:11:06.062Z,94827.00
2023-04-28T08:12:06.121Z,94827.00
2023-04-28T08:13:06.029Z,94827.00
2023-04-28T08:14:06.058Z,94827.00
2023-04-28T08:15:06.040Z,94829.00
2023-04-28T08:16:06.047Z,94829.00
2023-04-28T08:17:06.006Z,94833.00
2023-04-28T08:18:06.112Z,94827.00
2023-04-28T08:19:06.018Z,94831.00
2023-04-28T08:20:06.057Z,94829.00
2023-04-28T08:21:06.005Z,94833.00
2023-04-28T08:22:06.213Z,94833.00
2023-04-28T08:23:06.394Z,94831.00
2023-04-28T08:24:06.262Z,94833.00
2023-04-28T08:25:06.209Z,94831.00
2023-04-28T08:26:06.273Z,94829.00
2023-04-28T08:27:06.404Z,94829.00
2023-04-28T08:28:06.357Z,94831.00
2023-04-28T08:29:06.431Z,94829.00
2023-04-28T08:30:06.494Z,94833.00
2023-04-28T08:31:06.653Z,94833.00
2023-04-28T08:32:06.921Z,94835.00
2023-04-28T08:33:07.630Z,94833.00
2023-04-28T08:34:06.738Z,94835.00
2023-04-28T08:35:06.801Z,94837.00
2023-04-28T08:36:06.864Z,94835.00
2023-04-28T08:37:06.965Z,94835.00
2023-04-28T08:38:07.018Z,94835.00
2023-04-28T08:39:07.081Z,94835.00
2023-04-28T08:40:07.153Z,94837.00
2023-04-28T08:41:07.154Z,94829.00
2023-04-28T08:42:07.251Z,94833.00
2023-04-28T08:43:07.309Z,94833.00
2023-04-28T08:44:07.424Z,94831.00
2023-04-28T08:45:07.379Z,94833.00
2023-04-28T08:46:07.427Z,94833.00
2023-04-28T08:47:07.967Z,94833.00
2023-04-28T08:48:07.579Z,94827.00
2023-04-28T08:49:07.468Z,94827.00
2023-04-28T08:50:07.477Z,94829.00
2023-04-28T08:51:07.472Z,94829.00
2023-04-28T08:52:07.521Z,94827.00
2023-04-28T08:53:07.485Z,94823.00
2023-04-28T08:55:07.551Z,94825.00
2023-04-28T08:56:07.506Z,94825.00
2023-04-28T08:57:07.523Z,94825.00
2023-04-28T08:58:07.447Z,94827.00
2023-04-28T08:59:07.539Z,94827.00
2023-04-28T09:00:07.423Z,94831.00
2023-04-28T09:01:07.393Z,94831.00
2023-04-28T09:02:07.429Z,94831.00
2023-04-28T09:03:07.580Z,94831.00
2023-04-28T09:04:07.639Z,94827.00
2023-04-28T09:05:07.621Z,94831.00
2023-04-28T09:06:07.374Z,94833.00
2023-04-28T09:07:07.363Z,94833.00
2023-04-28T09:08:07.374Z,94835.00
2023-04-28T09:09:07.358Z,94831.00
2023-04-28T09:10:07.377Z,94827.00
2023-04-28T09:11:07.329Z,94829.00
2023-04-28T09:12:07.347Z,94829.00
2023-04-28T09:13:07.344Z,94827.00
2023-04-28T09:14:07.308Z,94829.00
2023-04-28T09:15:07.344Z,94829.00
2023-04-28T09:16:07.308Z,94827.00
2023-04-28T09:17:07.293Z,94825.00
2023-04-28T09:18:07.305Z,94819.00
2023-04-28T09:19:07.262Z,94821.00
2023-04-28T09:20:07.279Z,94819.00
2023-04-28T09:21:07.297Z,94815.00
2023-04-28T09:22:17.562Z,94815.00
2023-04-28T09:23:08.283Z,94817.00
2023-04-28T09:24:07.255Z,94815.00
2023-04-28T09:25:07.282Z,94815.00
2023-04-28T09:26:07.233Z,94817.00
2023-04-28T09:27:07.267Z,94813.00
2023-04-28T09:28:07.228Z,94813.00
2023-04-28T09:29:07.234Z,94813.00
2023-04-28T09:30:07.241Z,94817.00
2023-04-28T09:31:07.272Z,94813.00
2023-04-28T09:32:07.478Z,94813.00
2023-04-28T09:33:09.364Z,94815.00
2023-04-28T09:34:07.460Z,94815.00
2023-04-28T09:35:07.458Z,94811.00
2023-04-28T09:36:07.409Z,94815.00
2023-04-28T09:37:07.472Z,94815.00
2023-04-28T09:38:07.393Z,94815.00
2023-04-28T09:39:07.367Z,94809.00
2023-04-28T09:40:07.385Z,94811.00
2023-04-28T09:41:07.410Z,94815.00
2023-04-28T09:42:07.443Z,94819.00
2023-04-28T09:43:18.954Z,94815.00
2023-04-28T09:44:08.331Z,94815.00
2023-04-28T09:45:07.435Z,94815.00
2023-04-28T09:46:07.368Z,94817.00
2023-04-28T09:47:07.315Z,94817.00
2023-04-28T09:48:07.464Z,94821.00
2023-04-28T09:49:07.400Z,94819.00
2023-04-28T09:50:07.381Z,94819.00
2023-04-28T09:51:07.315Z,94823.00
2023-04-28T09:52:07.285Z,94819.00
2023-04-28T09:53:07.303Z,94821.00
2023-04-28T09:54:07.300Z,94821.00
2023-04-28T09:55:07.259Z,94821.00
2023-04-28T09:56:07.302Z,94825.00
2023-04-28T09:57:07.626Z,94829.00
2023-04-28T09:58:07.334Z,94827.00
2023-04-28T09:59:07.467Z,94829.00
2023-04-28T10:00:07.429Z,94829.00
2023-04-28T10:01:07.479Z,94825.00
2023-04-28T10:02:22.538Z,94825.00
2023-04-28T10:03:08.463Z,94831.00
2023-04-28T10:04:07.502Z,94823.00
2023-04-28T10:05:07.621Z,94821.00
2023-04-28T10:06:07.395Z,94819.00
2023-04-28T10:07:07.354Z,94815.00
2023-04-28T10:08:07.384Z,94815.00
2023-04-28T10:09:07.363Z,94811.00
2023-04-28T10:10:07.347Z,94809.00
2023-04-28T10:11:07.450Z,94811.00
2023-04-28T10:12:07.420Z,94811.00
2023-04-28T10:13:07.512Z,94809.00
2023-04-28T10:14:07.553Z,94813.00
2023-04-28T10:15:07.673Z,94813.00
2023-04-28T10:16:07.697Z,94813.00
2023-04-28T10:17:08.425Z,94811.00
2023-04-28T10:18:08.073Z,94809.00
2023-04-28T10:19:07.898Z,94809.00
2023-04-28T10:20:07.909Z,94809.00
2023-04-28T10:21:07.967Z,94813.00
2023-04-28T10:22:08.053Z,94811.00
2023-04-28T10:23:08.153Z,94809.00
2023-04-28T10:24:08.212Z,94807.00
2023-04-28T10:25:08.238Z,94805.00
2023-04-28T10:26:08.234Z,94805.00
2023-04-28T10:27:08.357Z,94805.00
2023-04-28T10:28:08.369Z,94801.00
2023-04-28T10:29:08.505Z,94801.00
2023-04-28T10:30:19.159Z,94801.00
2023-04-28T10:31:09.536Z,94803.00
2023-04-28T10:32:08.481Z,94803.00
2023-04-28T10:33:08.532Z,94799.00
2023-04-28T10:34:08.474Z,94799.00
2023-04-28T10:35:08.437Z,94797.00
2023-04-28T10:36:08.425Z,94796.00
2023-04-28T10:37:08.460Z,94792.00
2023-04-28T10:38:08.471Z,94792.00
2023-04-28T10:39:08.473Z,94788.00
2023-04-28T10:40:08.598Z,94788.00
2023-04-28T10:41:08.412Z,94786.00
2023-04-28T10:42:08.390Z,94782.00
2023-04-28T10:43:08.405Z,94784.00
2023-04-28T10:44:08.391Z,94782.00
2023-04-28T10:45:08.370Z,94778.00
2023-04-28T10:46:08.424Z,94772.00
2023-04-28T10:47:08.378Z,94768.00
2023-04-28T10:48:08.400Z,94768.00
2023-04-28T10:49:08.431Z,94770.00
2023-04-28T10:50:08.353Z,94772.00
2023-04-28T10:51:08.325Z,94778.00
2023-04-28T10:52:08.356Z,94774.00
2023-04-28T10:53:08.313Z,94774.00
2023-04-28T10:54:08.329Z,94770.00
2023-04-28T10:55:19.234Z,94768.00
2023-04-28T10:56:09.294Z,94766.00
2023-04-28T10:57:08.274Z,94766.00
2023-04-28T10:58:08.267Z,94768.00
2023-04-28T10:59:08.305Z,94768.00
2023-04-28T11:00:08.266Z,94766.00
2023-04-28T11:01:08.303Z,94766.00
2023-04-28T11:02:08.310Z,94766.00
2023-04-28T11:03:08.381Z,94766.00
2023-04-28T11:04:08.529Z,94762.00
2023-04-28T11:06:08.265Z,94760.00
2023-04-28T11:07:08.199Z,94760.00
2023-04-28T11:08:08.986Z,94760.00
2023-04-28T11:09:08.218Z,94762.00
2023-04-28T11:10:08.225Z,94758.00
2023-04-28T11:11:08.170Z,94754.00
2023-04-28T11:12:08.172Z,94751.00
2023-04-28T11:13:08.204Z,94741.00
2023-04-28T11:14:08.228Z,94743.00
2023-04-28T11:15:08.241Z,94745.00
2023-04-28T11:16:08.297Z,94743.00
2023-04-28T11:17:08.310Z,94743.00
2023-04-28T11:18:08.355Z,94741.00
2023-04-28T11:19:08.410Z,94735.00
2023-04-28T11:20:08.445Z,94733.00
2023-04-28T11:21:08.447Z,94725.00
2023-04-28T11:22:08.478Z,94727.00
2023-04-28T11:23:08.552Z,94729.00
2023-04-28T11:24:08.961Z,94729.00
2023-04-28T11:25:09.447Z,94725.00
2023-04-28T11:26:08.639Z,94723.00
2023-04-28T11:27:08.621Z,94725.00
2023-04-28T11:28:08.677Z,94721.00
2023-04-28T11:29:08.714Z,94723.00
2023-04-28T11:30:08.706Z,94721.00
2023-04-28T11:31:08.742Z,94719.00
2023-04-28T11:32:08.919Z,94717.00
2023-04-28T11:33:08.810Z,94713.00
2023-04-28T11:34:08.845Z,94709.00
2023-04-28T11:35:08.872Z,94713.00
2023-04-28T11:36:08.875Z,94717.00
2023-04-28T11:37:08.897Z,94723.00
2023-04-28T11:38:08.946Z,94729.00
2023-04-28T11:39:09.022Z,94737.00
2023-04-28T11:40:08.994Z,94749.00
2023-04-28T11:41:09.111Z,94749.00
2023-04-28T11:42:09.096Z,94747.00
2023-04-28T11:43:09.094Z,94739.00
2023-04-28T11:44:09.119Z,94739.00
2023-04-28T11:45:09.167Z,94739.00
2023-04-28T11:46:09.432Z,94737.00
2023-04-28T11:47:09.243Z,94741.00